createdAt,value
2022-08-01T00:01:16.984Z,97854.56
2022-08-01T00:04:19.125Z,97855.31
2022-08-01T00:07:21.092Z,97845.56
2022-08-01T00:10:23.266Z,97850.25
2022-08-01T00:13:25.391Z,97846.34
2022-08-01T00:16:27.523Z,97837.16
2022-08-01T00:19:29.683Z,97832.88
2022-08-01T00:22:32.459Z,97833.41
2022-08-01T00:25:34.773Z,97840.31
2022-08-01T00:28:36.582Z,97836.84
2022-08-01T00:31:38.410Z,97835.56
2022-08-01T00:34:40.515Z,97835.88
2022-08-01T00:37:42.339Z,97830.81
2022-08-01T00:40:44.360Z,97830.63
2022-08-01T00:43:46.392Z,97842.16
2022-08-01T00:46:48.193Z,97842.50
2022-08-01T00:49:50.095Z,97836.22
2022-08-01T00:52:52.343Z,97837.53
2022-08-01T00:55:54.692Z,97841.97
2022-08-01T00:58:56.857Z,97846.06
2022-08-01T01:01:59.344Z,97841.13
2022-08-01T01:05:03.975Z,97845.25
2022-08-01T01:08:21.010Z,97848.03
2022-08-01T01:11:55.269Z,97848.03
2022-08-01T01:15:26.873Z,97851.66
2022-08-01T01:18:33.576Z,97849.22
2022-08-01T01:21:58.850Z,97849.06
2022-08-01T01:25:28.219Z,97843.09
2022-08-01T01:28:54.763Z,97853.28
2022-08-01T01:31:57.586Z,97852.97
2022-08-01T01:35:00.026Z,97853.59
2022-08-01T01:38:10.547Z,97851.41
2022-08-01T01:41:13.358Z,97855.88
2022-08-01T01:44:16.526Z,97861.69
2022-08-01T01:47:18.790Z,97856.56
2022-08-01T01:50:25.016Z,97855.25
2022-08-01T01:53:37.665Z,97854.91
2022-08-01T01:56:49.753Z,97856.56
2022-08-01T01:59:52.504Z,97847.69
2022-08-01T02:02:55.338Z,97847.53
2022-08-01T02:05:58.129Z,97848.03
2022-08-01T02:09:00.297Z,97841.78
2022-08-01T02:12:09.214Z,97844.25
2022-08-01T02:15:12.786Z,97844.59
2022-08-01T02:18:16.367Z,97844.78
2022-08-01T02:21:24.342Z,97840.19
2022-08-01T02:24:39.875Z,97840.34
2022-08-01T02:27:46.869Z,97839.22
2022-08-01T02:30:48.706Z,97842.50
2022-08-01T02:34:00.219Z,97854.19
2022-08-01T02:37:05.818Z,97847.78
2022-08-01T02:40:09.572Z,97847.63
2022-08-01T02:43:19.522Z,97857.00
2022-08-01T02:46:25.678Z,97856.50
2022-08-01T02:49:28.808Z,97850.75
2022-08-01T02:52:31.692Z,97856.66
2022-08-01T02:55:33.959Z,97851.06
2022-08-01T02:58:38.455Z,97854.38
2022-08-01T03:01:42.170Z,97844.84
2022-08-01T03:04:46.007Z,97849.75
2022-08-01T03:07:48.940Z,97846.97
2022-08-01T03:10:51.886Z,97849.44
2022-08-01T03:13:55.381Z,97850.44
2022-08-01T03:16:57.552Z,97842.03
2022-08-01T03:20:00.286Z,97834.13
2022-08-01T03:23:07.178Z,97835.44
2022-08-01T03:26:09.448Z,97830.34
2022-08-01T03:29:17.710Z,97829.00
2022-08-01T03:32:20.881Z,97825.72
2022-08-01T03:35:23.633Z,97826.53
2022-08-01T03:38:27.625Z,97826.66
2022-08-01T03:41:34.208Z,97827.63
2022-08-01T03:44:40.134Z,97833.03
2022-08-01T03:47:44.862Z,97816.78
2022-08-01T03:50:52.659Z,97825.53
2022-08-01T03:53:57.354Z,97833.44
2022-08-01T03:56:59.613Z,97837.53
2022-08-01T04:00:02.445Z,97845.09
2022-08-01T04:03:14.785Z,97848.53
2022-08-01T04:06:16.693Z,97844.03
2022-08-01T04:09:19.152Z,97846.38
2022-08-01T04:12:22.033Z,97857.84
2022-08-01T04:15:24.935Z,97858.09
2022-08-01T04:18:27.206Z,97858.34
2022-08-01T04:21:30.311Z,97858.97
2022-08-01T04:24:33.945Z,97862.53
2022-08-01T04:27:50.527Z,97866.44
2022-08-01T04:31:01.639Z,97856.88
2022-08-01T04:34:06.287Z,97860.06
2022-08-01T04:37:11.232Z,97865.59
2022-08-01T04:40:15.222Z,97863.31
2022-08-01T04:43:17.412Z,97868.47
2022-08-01T04:46:20.155Z,97869.44
2022-08-01T04:49:29.999Z,97863.53
2022-08-01T04:52:35.829Z,97868.78
2022-08-01T04:55:37.734Z,97879.13
2022-08-01T04:58:42.006Z,97870.91
2022-08-01T05:01:43.990Z,97882.56
2022-08-01T05:04:46.948Z,97879.97
2022-08-01T05:07:48.873Z,97879.38
2022-08-01T05:10:51.058Z,97881.75
2022-08-01T05:13:53.693Z,97874.84
2022-08-01T05:16:55.985Z,97869.59
2022-08-01T05:19:57.960Z,97872.63
2022-08-01T05:23:00.100Z,97861.38
2022-08-01T05:26:06.302Z,97872.53
2022-08-01T05:29:08.540Z,97871.84
2022-08-01T05:32:10.961Z,97878.13
2022-08-01T05:35:15.249Z,97878.91
2022-08-01T05:38:17.702Z,97873.47
2022-08-01T05:41:19.843Z,97880.97
2022-08-01T05:44:21.851Z,97883.13
2022-08-01T05:47:24.101Z,97888.53
2022-08-01T05:50:26.505Z,97884.63
2022-08-01T05:53:28.427Z,97884.50
2022-08-01T05:56:32.302Z,97884.63
2022-08-01T05:59:34.880Z,97886.34
2022-08-01T06:02:41.710Z,97885.31
2022-08-01T06:05:43.807Z,97893.56
2022-08-01T06:08:45.733Z,97898.44
2022-08-01T06:11:47.766Z,97898.00
2022-08-01T06:14:49.960Z,97901.84
2022-08-01T06:17:52.096Z,97906.00
2022-08-01T06:20:54.125Z,97900.94
2022-08-01T06:23:56.177Z,97912.75
2022-08-01T06:26:58.397Z,97911.69
2022-08-01T06:30:00.668Z,97915.97
2022-08-01T06:33:04.063Z,97920.47
2022-08-01T06:36:06.304Z,97924.28
2022-08-01T06:39:08.417Z,97920.81
2022-08-01T06:42:11.030Z,97921.63
2022-08-01T06:45:14.135Z,97913.03
2022-08-01T06:48:16.220Z,97907.56
2022-08-01T06:51:21.078Z,97904.91
2022-08-01T06:54:23.781Z,97914.47
2022-08-01T06:57:25.825Z,97906.00
2022-08-01T07:00:28.510Z,97910.53
2022-08-01T07:03:54.084Z,97906.28
2022-08-01T07:06:53.003Z,97904.34
2022-08-01T07:09:55.179Z,97908.94
2022-08-01T07:12:57.270Z,97904.75
2022-08-01T07:15:59.537Z,97918.66
2022-08-01T07:19:03.392Z,97919.56
2022-08-01T07:22:05.715Z,97912.72
2022-08-01T07:25:09.202Z,97910.72
2022-08-01T07:28:11.123Z,97910.09
2022-08-01T07:31:13.770Z,97905.59
2022-08-01T07:34:15.720Z,97912.13
2022-08-01T07:37:19.353Z,97908.75
2022-08-01T07:40:40.482Z,97905.59
2022-08-01T07:43:47.350Z,97909.41
2022-08-01T07:46:52.565Z,97906.94
2022-08-01T07:50:00.964Z,97917.13
2022-08-01T07:53:04.787Z,97904.97
2022-08-01T07:56:07.557Z,97903.91
2022-08-01T07:59:10.764Z,97901.44
2022-08-01T08:02:15.158Z,97900.47
2022-08-01T08:05:58.008Z,97914.63
2022-08-01T08:08:44.413Z,97913.09
2022-08-01T08:11:48.437Z,97909.56
2022-08-01T08:14:50.911Z,97905.31
2022-08-01T08:17:55.279Z,97904.69
2022-08-01T08:20:57.375Z,97905.84
2022-08-01T08:24:17.863Z,97901.13
2022-08-01T08:27:19.809Z,97914.63
2022-08-01T08:30:22.036Z,97909.63
2022-08-01T08:33:24.696Z,97915.91
2022-08-01T08:36:34.725Z,97902.47
2022-08-01T08:39:42.010Z,97910.72
2022-08-01T08:42:44.502Z,97907.34
2022-08-01T08:45:59.517Z,97911.34
2022-08-01T08:49:04.876Z,97908.84
2022-08-01T08:52:09.461Z,97914.16
2022-08-01T08:55:15.507Z,97915.19
2022-08-01T08:58:19.451Z,97919.78
2022-08-01T09:01:22.945Z,97921.63
2022-08-01T09:04:26.629Z,97916.75
2022-08-01T09:07:28.837Z,97921.81
2022-08-01T09:10:30.816Z,97913.91
2022-08-01T09:13:33.046Z,97920.41
2022-08-01T09:16:47.959Z,97921.03
2022-08-01T09:19:54.653Z,97919.53
2022-08-01T09:22:56.775Z,97916.41
2022-08-01T09:25:59.269Z,97914.81
2022-08-01T09:29:05.618Z,97911.50
2022-08-01T09:32:13.868Z,97906.53
2022-08-01T09:35:36.474Z,97919.03
2022-08-01T09:38:50.871Z,97916.91
2022-08-01T09:41:54.859Z,97916.38
2022-08-01T09:44:58.366Z,97915.63
2022-08-01T09:48:07.660Z,97920.34
2022-08-01T09:51:14.143Z,97917.50
2022-08-01T09:54:36.096Z,97923.34
2022-08-01T09:57:40.262Z,97915.47
2022-08-01T10:00:45.571Z,97919.69
2022-08-01T10:03:47.898Z,97917.00
2022-08-01T10:06:55.575Z,97919.25
2022-08-01T10:10:11.489Z,97917.94
2022-08-01T10:13:13.579Z,97912.75
2022-08-01T10:16:17.140Z,97920.16
2022-08-01T10:19:19.905Z,97921.25
2022-08-01T10:22:25.003Z,97916.84
2022-08-01T10:25:42.737Z,97911.75
2022-08-01T10:28:49.655Z,97913.16
2022-08-01T10:31:51.916Z,97900.97
2022-08-01T10:34:55.763Z,97904.16
2022-08-01T10:37:59.597Z,97905.94
2022-08-01T10:41:06.514Z,97905.09
2022-08-01T10:44:10.633Z,97912.56
2022-08-01T10:47:18.143Z,97901.03
2022-08-01T10:50:28.642Z,97903.44
2022-08-01T10:53:42.837Z,97892.22
2022-08-01T10:56:50.657Z,97891.66
2022-08-01T11:00:01.178Z,97888.72
2022-08-01T11:03:05.062Z,97896.81
2022-08-01T11:06:08.857Z,97895.53
2022-08-01T11:09:16.397Z,97894.47
2022-08-01T11:12:24.463Z,97883.84
2022-08-01T11:15:30.862Z,97887.50
2022-08-01T11:18:33.985Z,97890.75
2022-08-01T11:22:01.642Z,97888.97
2022-08-01T11:25:04.616Z,97879.47
2022-08-01T11:28:28.467Z,97883.25
2022-08-01T11:31:37.716Z,97878.94
2022-08-01T11:34:56.833Z,97878.97
2022-08-01T11:38:25.311Z,97880.97
2022-08-01T11:41:38.184Z,97879.16
2022-08-01T11:44:51.498Z,97875.19
2022-08-01T11:47:53.430Z,97875.75
2022-08-01T11:50:58.019Z,97867.91
2022-08-01T11:54:04.595Z,97873.06
2022-08-01T11:57:17.066Z,97874.69
2022-08-01T12:00:19.982Z,97864.56
2022-08-01T12:03:33.479Z,97858.66
2022-08-01T12:06:36.368Z,97856.47
2022-08-01T12:09:38.507Z,97857.53
2022-08-01T12:12:49.725Z,97846.78
2022-08-01T12:15:56.485Z,97852.72
2022-08-01T12:18:58.735Z,97857.59
2022-08-01T12:22:14.962Z,97851.91
2022-08-01T12:25:18.911Z,97846.72
2022-08-01T12:28:21.045Z,97856.50
2022-08-01T12:31:33.096Z,97854.34
2022-08-01T12:34:35.569Z,97860.28
2022-08-01T12:37:49.119Z,97865.28
2022-08-01T12:40:52.858Z,97854.22
2022-08-01T12:43:55.313Z,97857.59
2022-08-01T12:46:57.823Z,97854.53
2022-08-01T12:49:59.990Z,97851.66
2022-08-01T12:53:03.264Z,97847.31
2022-08-01T12:56:05.300Z,97834.13
2022-08-01T12:59:27.576Z,97844.88
2022-08-01T13:02:34.458Z,97838.25
2022-08-01T13:05:42.819Z,97840.75
2022-08-01T13:08:45.009Z,97837.41
2022-08-01T13:11:56.264Z,97841.00
2022-08-01T13:15:19.741Z,97833.00
2022-08-01T13:18:29.848Z,97833.22
2022-08-01T13:21:34.455Z,97841.38
2022-08-01T13:25:22.449Z,97833.47
2022-08-01T13:28:28.305Z,97830.66
2022-08-01T13:31:34.556Z,97823.88
2022-08-01T13:34:36.571Z,97832.09
2022-08-01T13:37:39.548Z,97828.13
2022-08-01T13:40:41.489Z,97833.28
2022-08-01T13:43:58.390Z,97827.88
2022-08-01T13:47:14.919Z,97835.69
2022-08-01T13:50:18.858Z,97830.03
2022-08-01T13:53:20.902Z,97826.50
2022-08-01T13:56:22.914Z,97825.53
2022-08-01T13:59:24.861Z,97835.72
2022-08-01T14:02:30.155Z,97844.81
2022-08-01T14:05:32.326Z,97842.31
2022-08-01T14:08:34.501Z,97833.69
2022-08-01T14:11:37.148Z,97835.97
2022-08-01T14:14:39.580Z,97834.38
2022-08-01T14:17:47.600Z,97846.47
2022-08-01T14:20:50.203Z,97844.97
2022-08-01T14:23:55.953Z,97841.78
2022-08-01T14:26:58.286Z,97846.88
2022-08-01T14:30:03.774Z,97855.59
2022-08-01T14:33:06.198Z,97855.97
2022-08-01T14:36:31.070Z,97862.06
2022-08-01T14:39:30.474Z,97863.06
2022-08-01T14:42:32.660Z,97854.97
2022-08-01T14:45:34.862Z,97857.81
2022-08-01T14:48:37.085Z,97856.47
2022-08-01T14:51:39.392Z,97851.91
2022-08-01T14:54:41.495Z,97854.66
2022-08-01T14:57:43.829Z,97864.56
2022-08-01T15:00:46.665Z,97854.84
2022-08-01T15:03:49.340Z,97859.72
2022-08-01T15:06:51.891Z,97858.34
2022-08-01T15:09:54.183Z,97855.59
2022-08-01T15:12:56.766Z,97852.38
2022-08-01T15:15:59.815Z,97846.19
2022-08-01T15:19:02.948Z,97848.91
2022-08-01T15:22:05.346Z,97864.59
2022-08-01T15:25:07.932Z,97853.22
2022-08-01T15:28:11.311Z,97843.03
2022-08-01T15:31:14.411Z,97847.25
2022-08-01T15:34:16.759Z,97858.56
2022-08-01T15:37:18.863Z,97858.97
2022-08-01T15:40:20.834Z,97854.06
2022-08-01T15:43:22.921Z,97856.38
2022-08-01T15:46:25.543Z,97853.91
2022-08-01T15:49:27.773Z,97853.53
2022-08-01T15:52:31.970Z,97853.56
2022-08-01T15:55:38.592Z,97850.25
2022-08-01T15:58:40.528Z,97851.03
2022-08-01T16:01:43.074Z,97853.63
2022-08-01T16:04:45.315Z,97853.44
2022-08-01T16:07:58.029Z,97849.00
2022-08-01T16:11:03.862Z,97851.59
2022-08-01T16:14:06.776Z,97849.59
2022-08-01T16:17:09.064Z,97848.44
2022-08-01T16:20:11.603Z,97848.28
2022-08-01T16:23:15.374Z,97850.06
2022-08-01T16:26:27.058Z,97853.22
2022-08-01T16:29:31.517Z,97848.50
2022-08-01T16:32:40.429Z,97841.94
2022-08-01T16:35:47.523Z,97839.50
2022-08-01T16:38:52.336Z,97839.66
2022-08-01T16:41:55.124Z,97842.72
2022-08-01T16:45:03.989Z,97849.06
2022-08-01T16:48:23.509Z,97845.41
2022-08-01T16:51:25.700Z,97843.22
2022-08-01T16:54:28.406Z,97840.19
2022-08-01T16:57:36.950Z,97853.34
2022-08-01T17:00:42.991Z,97851.75
2022-08-01T17:03:53.081Z,97850.91
2022-08-01T17:06:58.043Z,97853.41
2022-08-01T17:10:01.248Z,97853.31
2022-08-01T17:13:04.146Z,97863.22
2022-08-01T17:16:08.104Z,97859.84
2022-08-01T17:19:10.655Z,97869.16
2022-08-01T17:22:13.445Z,97868.00
2022-08-01T17:25:16.230Z,97868.38
2022-08-01T17:28:18.636Z,97861.13
2022-08-01T17:31:20.500Z,97871.47
2022-08-01T17:34:22.470Z,97868.28
2022-08-01T17:37:26.232Z,97873.56
2022-08-01T17:40:39.996Z,97869.75
2022-08-01T17:43:42.465Z,97874.78
2022-08-01T17:46:44.766Z,97878.53
2022-08-01T17:49:54.841Z,97881.75
2022-08-01T17:52:57.270Z,97884.25
2022-08-01T17:56:00.943Z,97892.97
2022-08-01T17:59:03.118Z,97895.41
2022-08-01T18:02:05.364Z,97889.66
2022-08-01T18:05:10.659Z,97900.78
2022-08-01T18:08:13.016Z,97909.16
2022-08-01T18:11:17.357Z,97900.78
2022-08-01T18:14:19.736Z,97903.00
2022-08-01T18:17:22.387Z,97913.75
2022-08-01T18:20:25.951Z,97905.13
2022-08-01T18:23:27.964Z,97907.41
2022-08-01T18:26:30.205Z,97912.28
2022-08-01T18:29:46.698Z,97911.47
2022-08-01T18:32:50.217Z,97922.75
2022-08-01T18:35:54.032Z,97915.44
2022-08-01T18:38:56.244Z,97917.28
2022-08-01T18:42:00.768Z,97918.25
2022-08-01T18:45:03.037Z,97915.69
2022-08-01T18:48:05.734Z,97921.44
2022-08-01T18:51:08.564Z,97918.50
2022-08-01T18:54:14.946Z,97932.97
2022-08-01T18:57:22.922Z,97926.25
2022-08-01T19:00:24.848Z,97932.41
2022-08-01T19:03:26.957Z,97938.91
2022-08-01T19:06:29.227Z,97939.28
2022-08-01T19:09:31.732Z,97950.69
2022-08-01T19:12:33.841Z,97948.03
2022-08-01T19:15:36.723Z,97951.97
2022-08-01T19:18:40.764Z,97956.47
2022-08-01T19:21:45.042Z,97963.56
2022-08-01T19:24:47.791Z,97964.38
2022-08-01T19:27:50.799Z,97966.16
2022-08-01T19:30:53.920Z,97971.16
2022-08-01T19:33:58.211Z,97970.53
2022-08-01T19:37:00.265Z,97980.81
2022-08-01T19:40:03.801Z,97967.47
2022-08-01T19:43:07.288Z,97973.22
2022-08-01T19:46:17.216Z,97975.75
2022-08-01T19:49:22.638Z,97973.50
2022-08-01T19:52:26.843Z,97970.59
2022-08-01T19:55:32.724Z,97978.81
2022-08-01T19:58:39.884Z,97977.00
2022-08-01T20:01:42.639Z,97983.19
2022-08-01T20:04:44.815Z,97979.91
2022-08-01T20:07:47.443Z,97993.22
2022-08-01T20:10:49.919Z,97979.50
2022-08-01T20:13:52.157Z,97994.06
2022-08-01T20:16:56.000Z,97995.53
2022-08-01T20:19:58.376Z,97989.59
2022-08-01T20:23:01.355Z,97998.00
2022-08-01T20:26:04.529Z,98001.09
2022-08-01T20:29:07.218Z,98002.06
2022-08-01T20:32:10.674Z,97997.19
2022-08-01T20:35:12.711Z,97996.91
2022-08-01T20:38:16.403Z,98000.22
2022-08-01T20:41:19.696Z,97993.69
2022-08-01T20:44:23.186Z,98006.63
2022-08-01T20:47:25.958Z,97999.47
2022-08-01T20:50:53.737Z,98004.22
2022-08-01T20:53:57.048Z,97999.47
2022-08-01T20:57:08.273Z,98000.50
2022-08-01T21:00:11.487Z,98002.94
2022-08-01T21:03:24.462Z,98000.31
2022-08-01T21:06:31.492Z,98004.38
2022-08-01T21:09:39.335Z,98012.78
2022-08-01T21:13:20.547Z,98008.50
2022-08-01T21:16:30.113Z,98006.88
2022-08-01T21:19:34.811Z,98004.63
2022-08-01T21:23:16.256Z,98005.22
2022-08-01T21:26:21.110Z,98012.63
2022-08-01T21:29:25.365Z,98015.47
2022-08-01T21:32:30.166Z,98011.16
2022-08-01T21:35:33.212Z,98014.88
2022-08-01T21:38:36.805Z,98009.97
2022-08-01T21:41:56.070Z,98017.97
2022-08-01T21:45:03.650Z,98018.97
2022-08-01T21:48:06.773Z,98012.84
2022-08-01T21:51:18.505Z,98014.88
2022-08-01T21:54:29.726Z,98020.66
2022-08-01T21:57:56.122Z,98022.28
2022-08-01T22:01:06.964Z,98021.66
2022-08-01T22:04:14.099Z,98021.47
2022-08-01T22:07:18.604Z,98027.59
2022-08-01T22:10:21.307Z,98025.13
2022-08-01T22:13:24.333Z,98024.94
2022-08-01T22:16:27.186Z,98021.84
2022-08-01T22:19:44.150Z,98020.00
2022-08-01T22:22:52.099Z,98023.09
2022-08-01T22:25:56.680Z,98018.78
2022-08-01T22:28:59.186Z,98028.00
2022-08-01T22:32:04.600Z,98020.22
2022-08-01T22:35:10.817Z,98025.75
2022-08-01T22:38:13.519Z,98021.84
2022-08-01T22:41:22.494Z,98015.69
2022-08-01T22:44:38.214Z,98016.13
2022-08-01T22:47:54.573Z,98025.75
2022-08-01T22:51:07.262Z,98031.66
2022-08-01T22:54:14.430Z,98028.78
2022-08-01T22:57:31.356Z,98026.69
2022-08-01T23:00:36.295Z,98023.03
2022-08-01T23:03:41.744Z,98030.59
2022-08-01T23:06:46.079Z,98030.78
2022-08-01T23:09:53.921Z,98039.34
2022-08-01T23:12:56.942Z,98032.59
2022-08-01T23:16:00.266Z,98035.25
2022-08-01T23:19:04.437Z,98050.19
2022-08-01T23:22:06.750Z,98047.31
2022-08-01T23:25:11.487Z,98048.75
2022-08-01T23:28:14.870Z,98046.25
2022-08-01T23:31:17.524Z,98050.75
2022-08-01T23:34:20.242Z,98053.41
2022-08-01T23:37:23.384Z,98053.19
2022-08-01T23:40:25.990Z,98051.16
2022-08-01T23:43:28.079Z,98054.84
2022-08-01T23:46:30.538Z,98048.31
2022-08-01T23:49:33.543Z,98049.16
2022-08-01T23:52:56.569Z,98051.16
2022-08-01T23:56:02.750Z,98047.88
2022-08-01T23:59:06.405Z,98039.25
